createdAt,value
2022-11-08T00:00:41.041Z,101318.34
2022-11-08T00:03:09.483Z,101318.84
2022-11-08T00:05:56.811Z,101323.72
2022-11-08T00:08:42.527Z,101317.66
2022-11-08T00:11:28.274Z,101314.88
2022-11-08T00:13:59.872Z,101314.59
2022-11-08T00:16:28.434Z,101308.19
2022-11-08T00:18:56.709Z,101300.72
2022-11-08T00:21:26.553Z,101198.03
2022-11-08T00:23:54.915Z,101291.41
2022-11-08T00:26:23.141Z,101311.41
2022-11-08T00:28:51.367Z,101305.09
2022-11-08T00:31:19.627Z,101292.50
2022-11-08T00:33:47.925Z,101304.16
2022-11-08T00:36:16.162Z,101302.22
2022-11-08T00:38:45.805Z,101299.16
2022-11-08T00:41:14.022Z,101299.03
2022-11-08T00:43:42.530Z,101293.25
2022-11-08T00:46:10.902Z,101291.91
2022-11-08T00:48:39.366Z,101279.09
2022-11-08T00:51:09.604Z,101292.53
2022-11-08T00:53:38.718Z,101294.59
2022-11-08T00:56:11.863Z,101264.41
2022-11-08T00:58:41.586Z,101297.88
2022-11-08T01:01:11.568Z,101196.31
2022-11-08T01:03:39.994Z,101304.53
2022-11-08T01:06:09.926Z,101297.09
2022-11-08T01:08:38.736Z,101298.31
2022-11-08T01:11:10.463Z,101299.97
2022-11-08T01:13:38.720Z,101298.34
2022-11-08T01:16:12.027Z,101285.94
2022-11-08T01:18:41.079Z,101258.31
2022-11-08T01:21:09.889Z,101287.81
2022-11-08T01:23:38.839Z,101275.03
2022-11-08T01:26:10.389Z,101295.41
2022-11-08T01:28:39.006Z,101284.19
2022-11-08T01:31:09.495Z,101278.31
2022-11-08T01:33:38.362Z,101280.34
2022-11-08T01:36:07.983Z,101267.16
2022-11-08T01:38:36.506Z,101260.03
2022-11-08T01:41:04.912Z,101261.31
2022-11-08T01:43:39.867Z,101268.69
2022-11-08T01:46:39.317Z,101270.00
2022-11-08T01:49:28.408Z,101268.63
2022-11-08T01:52:04.001Z,101266.53
2022-11-08T01:54:36.886Z,101267.97
2022-11-08T01:57:10.116Z,101279.81
2022-11-08T01:59:42.955Z,101259.22
2022-11-08T02:02:13.596Z,101284.91
2022-11-08T02:04:43.407Z,101279.03
2022-11-08T02:07:13.933Z,101275.09
2022-11-08T02:09:46.292Z,101274.84
2022-11-08T02:12:16.023Z,101274.56
2022-11-08T02:14:45.621Z,101277.09
2022-11-08T02:17:14.709Z,101271.09
2022-11-08T02:19:45.709Z,101276.00
2022-11-08T02:22:34.808Z,101281.06
2022-11-08T02:25:04.640Z,101280.81
2022-11-08T02:27:32.962Z,101278.56
2022-11-08T02:30:01.179Z,101276.59
2022-11-08T02:32:39.331Z,101266.59
2022-11-08T02:35:11.737Z,101180.88
2022-11-08T02:37:40.168Z,101253.66
2022-11-08T02:40:11.183Z,101254.91
2022-11-08T02:42:39.839Z,101254.75
2022-11-08T02:45:09.233Z,101246.72
2022-11-08T02:47:38.494Z,101249.53
2022-11-08T02:50:07.770Z,101253.19
2022-11-08T02:52:36.023Z,101248.00
2022-11-08T02:55:04.381Z,101239.81
2022-11-08T02:57:33.992Z,101235.03
2022-11-08T03:00:02.177Z,101226.13
2022-11-08T03:02:30.367Z,101230.25
2022-11-08T03:04:58.695Z,101231.78
2022-11-08T03:07:26.907Z,101224.75
2022-11-08T03:09:55.291Z,101234.06
2022-11-08T03:12:23.589Z,101228.41
2022-11-08T03:14:53.267Z,101230.66
2022-11-08T03:17:21.508Z,101228.97
2022-11-08T03:19:49.716Z,101217.13
2022-11-08T03:22:17.965Z,101220.34
2022-11-08T03:24:46.208Z,101220.22
2022-11-08T03:27:15.483Z,101218.38
2022-11-08T03:29:43.736Z,101207.66
2022-11-08T03:32:14.550Z,101219.38
2022-11-08T03:34:43.120Z,101223.59
2022-11-08T03:37:11.693Z,101163.97
2022-11-08T03:39:39.927Z,101207.22
2022-11-08T03:42:08.265Z,101212.59
2022-11-08T03:44:36.608Z,101216.13
2022-11-08T03:47:04.948Z,101211.47
2022-11-08T03:49:34.696Z,101214.00
2022-11-08T03:52:03.155Z,101195.53
2022-11-08T03:54:31.411Z,101218.53
2022-11-08T03:56:59.542Z,101219.94
2022-11-08T03:59:27.894Z,101217.09
2022-11-08T04:01:56.171Z,101206.06
2022-11-08T04:04:24.612Z,101208.63
2022-11-08T04:06:54.401Z,101216.38
2022-11-08T04:09:22.755Z,101214.41
2022-11-08T04:12:08.470Z,101204.69
2022-11-08T04:14:54.063Z,101205.81
2022-11-08T04:17:42.430Z,101206.50
2022-11-08T04:20:28.902Z,101211.03
2022-11-08T04:22:58.490Z,101211.59
2022-11-08T04:25:28.981Z,101213.00
2022-11-08T04:28:00.784Z,101208.63
2022-11-08T04:30:29.203Z,101221.59
2022-11-08T04:32:57.485Z,101221.44
2022-11-08T04:35:25.737Z,101224.13
2022-11-08T04:37:54.021Z,101216.94
2022-11-08T04:40:23.670Z,101221.03
2022-11-08T04:42:51.895Z,101229.63
2022-11-08T04:45:20.306Z,101219.88
2022-11-08T04:47:48.698Z,101220.88
2022-11-08T04:50:17.559Z,101216.38
2022-11-08T04:52:52.867Z,101144.47
2022-11-08T04:55:21.629Z,101226.09
2022-11-08T04:57:51.515Z,101218.44
2022-11-08T05:00:20.167Z,101210.09
2022-11-08T05:02:48.435Z,101208.97
2022-11-08T05:05:17.020Z,101215.03
2022-11-08T05:07:45.243Z,101206.97
2022-11-08T05:10:13.626Z,101207.97
2022-11-08T05:12:42.760Z,101215.03
2022-11-08T05:15:13.462Z,101219.56
2022-11-08T05:17:41.687Z,101202.91
2022-11-08T05:20:29.610Z,101223.78
2022-11-08T05:23:19.392Z,101210.81
2022-11-08T05:25:47.915Z,101218.69
2022-11-08T05:28:18.307Z,101220.25
2022-11-08T05:30:53.555Z,101221.09
2022-11-08T05:33:21.774Z,101196.97
2022-11-08T05:35:50.223Z,101199.81
2022-11-08T05:38:18.694Z,101199.56
2022-11-08T05:40:47.358Z,101196.03
2022-11-08T05:43:16.072Z,101207.75
2022-11-08T05:45:47.845Z,101198.16
2022-11-08T05:48:16.341Z,101189.69
2022-11-08T05:50:44.789Z,101186.03
2022-11-08T05:53:13.235Z,101188.56
2022-11-08T05:55:41.461Z,101181.34
2022-11-08T05:58:09.995Z,101184.03
2022-11-08T06:00:38.267Z,101193.06
2022-11-08T06:03:08.394Z,101191.53
2022-11-08T06:05:36.588Z,101181.78
2022-11-08T06:08:05.207Z,101195.06
2022-11-08T06:10:33.376Z,101196.75
2022-11-08T06:13:01.993Z,101175.06
2022-11-08T06:15:30.370Z,101200.28
2022-11-08T06:18:03.238Z,101201.78
2022-11-08T06:20:32.932Z,101202.97
2022-11-08T06:23:01.115Z,101208.47
2022-11-08T06:25:29.376Z,101205.94
2022-11-08T06:27:57.582Z,101219.88
2022-11-08T06:30:25.827Z,101214.53
2022-11-08T06:32:55.079Z,101218.19
2022-11-08T06:35:23.311Z,101225.69
2022-11-08T06:37:56.531Z,101220.19
2022-11-08T06:40:28.795Z,101217.09
2022-11-08T06:42:58.770Z,101222.31
2022-11-08T06:45:27.346Z,101225.97
2022-11-08T06:47:58.547Z,101218.06
2022-11-08T06:50:27.011Z,101237.53
2022-11-08T06:52:58.639Z,101227.38
2022-11-08T06:55:27.189Z,101199.31
2022-11-08T06:57:56.008Z,101227.22
2022-11-08T07:00:24.677Z,101227.38
2022-11-08T07:02:56.311Z,101228.06
2022-11-08T07:05:25.153Z,101236.41
2022-11-08T07:07:53.576Z,101194.13
2022-11-08T07:10:25.589Z,101232.88
2022-11-08T07:13:00.713Z,101245.84
2022-11-08T07:15:29.471Z,101245.00
2022-11-08T07:18:02.135Z,101247.56
2022-11-08T07:20:30.494Z,101260.13
2022-11-08T07:22:59.548Z,101263.78
2022-11-08T07:25:30.185Z,101272.97
2022-11-08T07:27:59.738Z,101264.50
2022-11-08T07:30:28.553Z,101259.97
2022-11-08T07:32:57.593Z,101257.16
2022-11-08T07:35:27.677Z,101251.22
2022-11-08T07:37:56.501Z,101251.50
2022-11-08T07:40:24.779Z,101249.81
2022-11-08T07:43:11.121Z,101258.72
2022-11-08T07:45:40.340Z,101251.81
2022-11-08T07:48:12.392Z,101263.94
2022-11-08T07:50:41.542Z,101269.72
2022-11-08T07:53:09.808Z,101264.78
2022-11-08T07:55:39.118Z,101262.63
2022-11-08T07:58:11.951Z,101271.50
2022-11-08T08:00:41.837Z,101263.78
2022-11-08T08:03:11.731Z,101194.53
2022-11-08T08:05:42.047Z,101271.69
2022-11-08T08:08:12.497Z,101265.84
2022-11-08T08:10:41.936Z,101276.59
2022-11-08T08:13:11.626Z,101272.06
2022-11-08T08:15:40.103Z,101266.72
2022-11-08T08:18:09.528Z,101270.94
2022-11-08T08:20:38.856Z,101273.34
2022-11-08T08:23:07.929Z,101271.63
2022-11-08T08:25:36.337Z,101275.72
2022-11-08T08:28:05.902Z,101272.47
2022-11-08T08:30:36.927Z,101275.16
2022-11-08T08:33:33.984Z,101280.53
2022-11-08T08:35:56.869Z,101289.13
2022-11-08T08:38:25.095Z,101289.84
2022-11-08T08:40:53.409Z,101290.53
2022-11-08T08:43:21.910Z,101285.19
2022-11-08T08:45:51.993Z,101293.94
2022-11-08T08:48:20.351Z,101292.94
2022-11-08T08:50:48.621Z,101299.00
2022-11-08T08:53:17.292Z,101311.81
2022-11-08T08:55:46.022Z,101302.63
2022-11-08T08:58:14.214Z,101300.78
2022-11-08T09:03:33.118Z,101290.06
2022-11-08T09:06:03.150Z,101287.22
2022-11-08T09:08:31.937Z,101281.72
2022-11-08T09:11:02.195Z,101287.50
2022-11-08T09:13:31.967Z,101287.06
2022-11-08T09:16:02.985Z,101290.59
2022-11-08T09:18:33.204Z,101283.94
2022-11-08T09:21:04.549Z,101239.56
2022-11-08T09:23:33.211Z,101270.25
2022-11-08T09:26:03.085Z,101274.63
2022-11-08T09:28:33.191Z,101277.81
2022-11-08T09:31:03.410Z,101280.91
2022-11-08T09:33:33.358Z,101271.56
2022-11-08T09:36:02.256Z,101270.19
2022-11-08T09:38:31.211Z,101275.25
2022-11-08T09:41:32.725Z,101272.13
2022-11-08T09:44:14.592Z,101285.53
2022-11-08T09:46:50.020Z,101285.41
2022-11-08T09:49:26.829Z,101283.41
2022-11-08T09:51:55.298Z,101287.66
2022-11-08T09:54:27.607Z,101291.03
2022-11-08T09:56:56.411Z,101276.06
2022-11-08T09:59:37.697Z,101277.34
2022-11-08T10:02:18.133Z,101286.38
2022-11-08T10:04:53.413Z,101278.03
2022-11-08T10:07:30.408Z,101288.19
2022-11-08T10:10:17.041Z,101278.44
2022-11-08T10:12:55.065Z,101280.28
2022-11-08T10:15:31.898Z,101272.09
2022-11-08T10:18:27.494Z,101273.78
2022-11-08T10:21:06.432Z,101278.28
2022-11-08T10:23:44.084Z,101273.44
2022-11-08T10:26:20.554Z,101281.19
2022-11-08T10:28:56.546Z,101275.97
2022-11-08T10:31:27.939Z,101276.84
2022-11-08T10:33:57.965Z,101271.31
2022-11-08T10:36:32.802Z,101261.25
2022-11-08T10:39:05.288Z,101265.09
2022-11-08T10:41:42.546Z,101257.03
2022-11-08T10:44:16.438Z,101257.75
2022-11-08T10:46:46.695Z,101258.13
2022-11-08T10:49:19.576Z,101249.78
2022-11-08T10:51:54.077Z,101239.03
2022-11-08T10:54:42.688Z,101231.81
2022-11-08T10:57:12.291Z,101236.91
2022-11-08T10:59:41.381Z,101222.34
2022-11-08T11:02:26.179Z,101224.28
2022-11-08T11:04:56.212Z,101232.84
2022-11-08T11:07:32.998Z,101233.94
2022-11-08T11:10:23.804Z,101231.78
2022-11-08T11:12:53.296Z,101230.66
2022-11-08T11:15:21.611Z,101219.59
2022-11-08T11:17:49.964Z,101224.66
2022-11-08T11:20:22.372Z,101224.34
2022-11-08T11:22:53.498Z,101230.41
2022-11-08T11:25:24.960Z,101208.09
2022-11-08T11:27:56.406Z,101180.44
2022-11-08T11:30:31.188Z,101208.28
2022-11-08T11:33:02.654Z,101203.75
2022-11-08T11:35:38.836Z,101193.00
2022-11-08T11:38:32.693Z,101193.00
2022-11-08T11:41:10.863Z,101191.31
2022-11-08T11:43:45.779Z,101193.00
2022-11-08T11:46:21.510Z,101185.47
2022-11-08T11:48:56.981Z,101188.84
2022-11-08T11:51:29.235Z,101172.50
2022-11-08T11:53:59.644Z,101174.31
2022-11-08T11:56:44.717Z,101169.28
2022-11-08T11:59:44.502Z,101168.13
2022-11-08T12:03:06.083Z,101163.59
2022-11-08T12:05:47.225Z,101161.91
2022-11-08T12:08:25.906Z,101156.38
2022-11-08T12:11:10.579Z,101155.53
2022-11-08T12:13:54.306Z,101143.78
2022-11-08T12:16:28.857Z,101143.47
2022-11-08T12:19:11.624Z,101134.09
2022-11-08T12:21:50.092Z,101132.09
2022-11-08T12:24:34.101Z,101108.16
2022-11-08T12:27:11.597Z,101124.38
2022-11-08T12:29:50.377Z,101114.16
2022-11-08T12:32:37.517Z,101110.31
2022-11-08T12:35:20.878Z,101111.16
2022-11-08T12:38:04.332Z,101100.22
2022-11-08T12:40:39.920Z,101106.25
2022-11-08T12:43:33.678Z,101074.63
2022-11-08T12:46:09.722Z,101092.16
2022-11-08T12:49:14.012Z,101097.25
2022-11-08T12:52:06.534Z,101091.69
2022-11-08T12:54:38.846Z,101092.22
2022-11-08T12:57:11.614Z,101098.13
2022-11-08T12:59:44.080Z,101095.09
2022-11-08T13:02:19.851Z,101091.28
2022-11-08T13:04:56.217Z,101088.59
2022-11-08T13:07:35.212Z,101085.06
2022-11-08T13:10:13.112Z,101081.81
2022-11-08T13:13:13.224Z,101081.47
2022-11-08T13:16:09.189Z,101075.06
2022-11-08T13:18:45.325Z,101080.53
2022-11-08T13:21:38.070Z,101080.84
2022-11-08T13:24:44.437Z,101076.81
2022-11-08T13:27:31.635Z,101083.06
2022-11-08T13:30:20.291Z,101077.34
2022-11-08T13:32:55.887Z,101069.09
2022-11-08T13:35:31.085Z,101069.09
2022-11-08T13:38:08.552Z,101065.09
2022-11-08T13:40:44.987Z,101062.59
2022-11-08T13:43:31.438Z,101053.66
2022-11-08T13:46:44.117Z,101051.66
2022-11-08T13:49:19.256Z,101054.38
2022-11-08T13:51:48.200Z,101043.75
2022-11-08T13:54:47.315Z,101045.44
2022-11-08T13:57:20.345Z,101040.06
2022-11-08T13:59:58.677Z,101043.59
2022-11-08T14:02:47.878Z,101044.75
2022-11-08T14:05:29.040Z,101032.78
2022-11-08T14:08:28.985Z,101030.44
2022-11-08T14:11:21.836Z,101027.94
2022-11-08T14:14:34.108Z,101031.09
2022-11-08T14:17:21.421Z,101005.34
2022-11-08T14:19:50.114Z,101032.09
2022-11-08T14:22:22.983Z,101024.69
2022-11-08T14:24:53.870Z,101014.41
2022-11-08T14:27:36.189Z,101026.34
2022-11-08T14:30:06.544Z,101032.41
2022-11-08T14:32:34.856Z,101005.97
2022-11-08T14:35:14.200Z,101038.59
2022-11-08T14:37:45.278Z,101040.09
2022-11-08T14:40:21.542Z,101038.56
2022-11-08T14:42:50.711Z,101040.09
2022-11-08T14:45:25.710Z,100995.69
2022-11-08T14:48:00.283Z,101004.06
2022-11-08T14:50:32.918Z,101036.69
2022-11-08T14:53:26.558Z,101041.56
2022-11-08T14:56:03.205Z,101042.41
2022-11-08T14:58:32.083Z,101025.84
2022-11-08T15:01:03.399Z,101020.09
2022-11-08T15:03:33.211Z,101028.03
2022-11-08T15:06:04.109Z,101024.31
2022-11-08T15:08:37.000Z,101025.16
2022-11-08T15:11:08.218Z,101028.88
2022-11-08T15:13:42.996Z,101024.13
2022-11-08T15:16:12.552Z,101026.16
2022-11-08T15:18:42.715Z,100999.78
2022-11-08T15:21:27.650Z,101026.50
2022-11-08T15:24:11.943Z,101004.16
2022-11-08T15:26:40.469Z,101024.97
2022-11-08T15:29:19.526Z,101020.44
2022-11-08T15:31:55.544Z,101014.00
2022-11-08T15:34:32.863Z,101011.31
2022-11-08T15:37:01.433Z,101014.00
2022-11-08T15:39:40.872Z,100986.78
2022-11-08T15:42:14.946Z,101010.47
2022-11-08T15:44:58.937Z,101013.34
2022-11-08T15:47:40.126Z,101005.44
2022-11-08T15:50:18.635Z,101006.09
2022-11-08T15:52:48.684Z,101016.72
2022-11-08T15:55:20.569Z,101016.38
2022-11-08T15:57:52.510Z,101027.16
2022-11-08T16:00:24.243Z,101012.66
2022-11-08T16:02:53.541Z,101018.72
2022-11-08T16:05:24.195Z,100998.97
2022-11-08T16:07:54.174Z,101002.53
2022-11-08T16:10:28.580Z,101005.03
2022-11-08T16:12:58.886Z,100999.66
2022-11-08T16:15:29.133Z,100982.81
2022-11-08T16:17:58.490Z,101003.72
2022-11-08T16:20:28.896Z,101000.16
2022-11-08T16:22:57.833Z,101004.56
2022-11-08T16:25:29.795Z,101001.84
2022-11-08T16:28:00.619Z,100998.19
2022-11-08T16:30:31.830Z,101006.22
2022-11-08T16:33:01.515Z,101000.66
2022-11-08T16:35:29.916Z,100997.78
2022-11-08T16:37:58.200Z,100994.06
2022-11-08T16:40:27.879Z,100991.19
2022-11-08T16:42:56.072Z,100994.91
2022-11-08T16:45:50.538Z,100994.25
2022-11-08T16:48:17.907Z,100995.44
2022-11-08T16:50:47.254Z,101005.22
2022-11-08T16:53:16.923Z,101008.59
2022-11-08T16:55:47.089Z,101008.59
2022-11-08T16:58:16.276Z,101015.66
2022-11-08T17:00:46.321Z,101010.63
2022-11-08T17:03:18.036Z,101018.53
2022-11-08T17:05:46.351Z,101016.84
2022-11-08T17:08:14.821Z,101013.97
2022-11-08T17:10:43.678Z,101016.84
2022-11-08T17:13:14.879Z,101019.72
2022-11-08T17:15:43.522Z,101021.59
2022-11-08T17:18:13.732Z,101021.41
2022-11-08T17:20:42.616Z,101020.56
2022-11-08T17:23:11.722Z,101017.03
2022-11-08T17:25:43.119Z,101014.34
2022-11-08T17:28:13.783Z,101022.44
2022-11-08T17:30:44.638Z,101024.97
2022-11-08T17:33:14.187Z,101011.91
2022-11-08T17:35:44.532Z,101034.41
2022-11-08T17:38:13.365Z,101018.75
2022-11-08T17:40:42.719Z,101016.03
2022-11-08T17:43:13.461Z,101019.75
2022-11-08T17:45:43.212Z,101026.00
2022-11-08T17:48:11.440Z,101020.28
2022-11-08T17:50:39.792Z,101047.94
2022-11-08T17:53:09.068Z,101050.63
2022-11-08T17:55:37.645Z,101055.19
2022-11-08T17:58:06.022Z,101050.44
2022-11-08T18:00:34.447Z,101050.44
2022-11-08T18:03:08.850Z,101059.03
2022-11-08T18:05:39.982Z,101063.78
2022-11-08T18:08:08.183Z,101062.09
2022-11-08T18:10:36.708Z,101058.69
2022-11-08T18:13:04.930Z,101050.28
2022-11-08T18:15:33.288Z,101048.56
2022-11-08T18:18:01.431Z,101046.03
2022-11-08T18:20:32.576Z,101042.50
2022-11-08T18:23:00.821Z,101036.94
2022-11-08T18:25:29.097Z,101043.34
2022-11-08T18:27:57.354Z,101038.78
2022-11-08T18:30:25.743Z,101033.59
2022-11-08T18:32:54.019Z,101054.13
2022-11-08T18:35:22.294Z,101058.34
2022-11-08T18:37:51.964Z,101061.88
2022-11-08T18:40:20.200Z,101052.94
2022-11-08T18:42:48.536Z,101060.88
2022-11-08T18:45:16.739Z,101053.28
2022-11-08T18:47:45.160Z,101050.44
2022-11-08T18:50:13.452Z,101052.09
2022-11-08T18:52:45.396Z,101053.78
2022-11-08T18:55:15.873Z,101048.75
2022-11-08T18:57:44.152Z,101056.50
2022-11-08T19:00:13.024Z,101057.81
2022-11-08T19:02:41.368Z,101059.69
2022-11-08T19:05:10.123Z,101044.31
2022-11-08T19:07:38.432Z,101050.91
2022-11-08T19:10:07.764Z,101063.41
2022-11-08T19:12:37.526Z,101051.75
2022-11-08T19:15:06.198Z,101049.91
2022-11-08T19:17:36.454Z,101050.91
2022-11-08T19:20:05.641Z,101061.38
2022-11-08T19:22:33.966Z,101060.53
2022-11-08T19:25:02.317Z,101061.19
2022-11-08T19:27:33.717Z,101064.06
2022-11-08T19:30:03.491Z,101057.16
2022-11-08T19:32:32.776Z,101056.50
2022-11-08T19:35:01.234Z,101052.09
2022-11-08T19:37:29.506Z,101045.88
2022-11-08T19:39:57.737Z,101046.72
2022-11-08T19:42:26.074Z,101049.59
2022-11-08T19:44:54.375Z,101048.56
2022-11-08T19:47:24.101Z,101064.59
2022-11-08T19:49:52.419Z,101048.75
2022-11-08T19:52:20.985Z,101051.75
2022-11-08T19:54:50.361Z,101053.44
2022-11-08T19:57:18.649Z,101058.84
2022-11-08T19:59:47.013Z,101060.53
2022-11-08T20:02:15.734Z,101049.72
2022-11-08T20:04:45.416Z,101054.94
2022-11-08T20:07:15.028Z,101049.72
2022-11-08T20:09:43.387Z,101048.53
2022-11-08T20:12:11.712Z,101052.91
2022-11-08T20:14:39.997Z,101052.25
2022-11-08T20:17:08.266Z,101053.09
2022-11-08T20:19:36.602Z,101045.84
2022-11-08T20:22:06.273Z,101043.13
2022-11-08T20:24:34.606Z,101024.97
2022-11-08T20:27:03.895Z,101058.13
2022-11-08T20:29:32.207Z,101059.78
2022-11-08T20:32:00.529Z,101056.28
2022-11-08T20:34:29.813Z,101061.00
2022-11-08T20:36:58.396Z,101062.03
2022-11-08T20:39:28.114Z,101061.19
2022-11-08T20:41:56.330Z,101058.50
2022-11-08T20:44:25.284Z,101036.97
2022-11-08T20:46:53.619Z,101065.56
2022-11-08T20:49:21.969Z,101075.97
2022-11-08T20:51:50.249Z,101061.47
2022-11-08T20:54:18.564Z,101059.44
2022-11-08T20:56:48.204Z,101060.28
2022-11-08T20:59:16.496Z,101052.19
2022-11-08T21:01:44.775Z,101047.63
2022-11-08T21:04:13.147Z,101054.72
2022-11-08T21:06:41.639Z,101049.13
2022-11-08T21:09:34.365Z,101013.69
2022-11-08T21:12:00.288Z,101059.09
2022-11-08T21:14:28.602Z,101063.66
2022-11-08T21:17:20.953Z,101068.53
2022-11-08T21:19:45.201Z,101066.84
2022-11-08T21:22:16.309Z,101063.78
2022-11-08T21:24:45.677Z,101065.47
2022-11-08T21:27:16.313Z,101057.72
2022-11-08T21:29:44.604Z,101056.03
2022-11-08T21:32:12.868Z,101062.94
2022-11-08T21:34:45.602Z,101050.94
2022-11-08T21:37:15.504Z,101053.34
2022-11-08T21:39:43.833Z,101059.72
2022-11-08T21:42:12.175Z,101065.78
2022-11-08T21:44:41.891Z,101061.00
2022-11-08T21:47:10.938Z,101058.31
2022-11-08T21:49:39.229Z,101066.41
2022-11-08T21:52:07.460Z,101071.63
2022-11-08T21:54:35.845Z,101056.28
2022-11-08T21:57:04.152Z,101058.97
2022-11-08T21:59:32.440Z,101060.00
2022-11-08T22:02:02.061Z,101058.13
2022-11-08T22:04:30.594Z,101066.91
2022-11-08T22:06:59.051Z,101070.25
2022-11-08T22:09:27.413Z,101063.84
2022-11-08T22:11:55.795Z,101061.81
2022-11-08T22:14:24.040Z,101064.34
2022-11-08T22:16:52.294Z,101064.34
2022-11-08T22:19:22.005Z,101058.94
2022-11-08T22:21:50.234Z,101064.34
2022-11-08T22:24:21.271Z,101061.16
2022-11-08T22:26:51.548Z,101034.75
2022-11-08T22:29:20.261Z,101063.31
2022-11-08T22:31:48.979Z,101057.06
2022-11-08T22:34:17.478Z,101042.72
2022-11-08T22:36:47.119Z,101038.16
2022-11-08T22:39:16.616Z,101044.41
2022-11-08T22:41:45.757Z,101041.72
2022-11-08T22:44:14.804Z,101048.13
2022-11-08T22:46:43.473Z,101047.28
2022-11-08T22:49:12.771Z,101044.41
2022-11-08T22:51:41.965Z,101055.88
2022-11-08T22:54:11.749Z,101039.31
2022-11-08T22:56:40.401Z,101046.56
2022-11-08T22:59:09.058Z,101035.59
2022-11-08T23:01:37.508Z,101034.56
2022-11-08T23:04:05.925Z,101028.88
2022-11-08T23:06:35.310Z,101040.94
2022-11-08T23:09:04.991Z,101037.19
2022-11-08T23:11:51.837Z,101026.38
2022-11-08T23:14:56.600Z,101017.19
2022-11-08T23:17:24.883Z,101018.38
2022-11-08T23:20:10.231Z,101018.19
2022-11-08T23:22:55.642Z,101005.88
2022-11-08T23:25:23.921Z,101002.16
2022-11-08T23:28:10.693Z,101030.69
2022-11-08T23:30:58.166Z,101014.66
2022-11-08T23:33:26.467Z,101014.66
2022-11-08T23:36:14.351Z,101012.63
2022-11-08T23:38:43.032Z,101011.41
2022-11-08T23:41:29.119Z,101009.56
2022-11-08T23:44:16.073Z,101002.28
2022-11-08T23:46:44.518Z,101000.78
2022-11-08T23:49:12.848Z,101003.66
2022-11-08T23:51:41.154Z,100984.50
2022-11-08T23:54:09.512Z,101004.50
2022-11-08T23:56:37.985Z,101003.31
2022-11-08T23:59:07.637Z,100994.72
